sensor_id;sensor_type;location;lat;lon;timestamp;temperature;humidity
10276;DHT22;5183;51.190;6.820;2022-12-07T00:01:24;4.60;99.90
10276;DHT22;5183;51.190;6.820;2022-12-07T00:03:53;4.70;99.90
10276;DHT22;5183;51.190;6.820;2022-12-07T00:06:20;4.70;99.90
10276;DHT22;5183;51.190;6.820;2022-12-07T00:08:47;4.70;99.90
10276;DHT22;5183;51.190;6.820;2022-12-07T00:11:18;4.60;99.90
10276;DHT22;5183;51.190;6.820;2022-12-07T00:13:45;4.60;99.90
10276;DHT22;5183;51.190;6.820;2022-12-07T00:16:14;4.60;99.90
10276;DHT22;5183;51.190;6.820;2022-12-07T00:18:43;4.60;99.90
10276;DHT22;5183;51.190;6.820;2022-12-07T00:21:12;4.70;99.90
10276;DHT22;5183;51.190;6.820;2022-12-07T00:23:39;4.60;99.90
10276;DHT22;5183;51.190;6.820;2022-12-07T00:26:07;4.60;99.90
10276;DHT22;5183;51.190;6.820;2022-12-07T00:28:36;4.60;99.90
10276;DHT22;5183;51.190;6.820;2022-12-07T00:31:04;4.60;99.90
10276;DHT22;5183;51.190;6.820;2022-12-07T00:33:32;4.60;99.90
10276;DHT22;5183;51.190;6.820;2022-12-07T00:35:59;4.70;99.90
10276;DHT22;5183;51.190;6.820;2022-12-07T00:38:28;4.70;99.90
10276;DHT22;5183;51.190;6.820;2022-12-07T00:40:56;4.60;99.90
10276;DHT22;5183;51.190;6.820;2022-12-07T00:43:23;4.60;99.90
10276;DHT22;5183;51.190;6.820;2022-12-07T00:45:52;4.60;99.90
10276;DHT22;5183;51.190;6.820;2022-12-07T00:48:18;4.60;99.90
10276;DHT22;5183;51.190;6.820;2022-12-07T00:50:45;4.60;99.90
10276;DHT22;5183;51.190;6.820;2022-12-07T00:53:13;4.60;99.90
10276;DHT22;5183;51.190;6.820;2022-12-07T00:55:40;4.60;99.90
10276;DHT22;5183;51.190;6.820;2022-12-07T00:58:07;4.70;99.90
10276;DHT22;5183;51.190;6.820;2022-12-07T01:00:36;4.60;99.90
10276;DHT22;5183;51.190;6.820;2022-12-07T01:03:05;4.60;99.90
10276;DHT22;5183;51.190;6.820;2022-12-07T01:05:32;4.60;99.90
10276;DHT22;5183;51.190;6.820;2022-12-07T01:07:59;4.60;99.90
10276;DHT22;5183;51.190;6.820;2022-12-07T01:10:27;4.60;99.90
10276;DHT22;5183;51.190;6.820;2022-12-07T01:12:55;4.60;99.90
10276;DHT22;5183;51.190;6.820;2022-12-07T01:15:22;4.60;99.90
10276;DHT22;5183;51.190;6.820;2022-12-07T01:17:49;4.60;99.90
10276;DHT22;5183;51.190;6.820;2022-12-07T01:20:17;4.60;99.90
10276;DHT22;5183;51.190;6.820;2022-12-07T01:22:44;4.60;99.90
10276;DHT22;5183;51.190;6.820;2022-12-07T01:25:11;4.60;99.90
10276;DHT22;5183;51.190;6.820;2022-12-07T01:27:38;4.60;99.90
10276;DHT22;5183;51.190;6.820;2022-12-07T01:30:06;4.60;99.90
10276;DHT22;5183;51.190;6.820;2022-12-07T01:32:34;4.60;99.90
10276;DHT22;5183;51.190;6.820;2022-12-07T01:35:00;4.60;99.90
10276;DHT22;5183;51.190;6.820;2022-12-07T01:37:34;4.60;99.90
10276;DHT22;5183;51.190;6.820;2022-12-07T01:40:02;4.60;99.90
10276;DHT22;5183;51.190;6.820;2022-12-07T01:42:29;4.60;99.90
10276;DHT22;5183;51.190;6.820;2022-12-07T01:48:06;4.60;99.90
10276;DHT22;5183;51.190;6.820;2022-12-07T01:50:33;4.60;99.90
10276;DHT22;5183;51.190;6.820;2022-12-07T01:53:04;4.60;99.90
10276;DHT22;5183;51.190;6.820;2022-12-07T01:55:32;4.60;99.90
10276;DHT22;5183;51.190;6.820;2022-12-07T01:57:59;4.60;99.90
10276;DHT22;5183;51.190;6.820;2022-12-07T02:00:26;4.60;99.90
10276;DHT22;5183;51.190;6.820;2022-12-07T02:02:55;4.60;99.90
10276;DHT22;5183;51.190;6.820;2022-12-07T02:05:23;4.60;99.90
10276;DHT22;5183;51.190;6.820;2022-12-07T02:07:53;4.60;99.90
10276;DHT22;5183;51.190;6.820;2022-12-07T02:10:25;4.60;99.90
10276;DHT22;5183;51.190;6.820;2022-12-07T02:12:55;4.50;99.90
10276;DHT22;5183;51.190;6.820;2022-12-07T02:15:27;4.60;99.90
10276;DHT22;5183;51.190;6.820;2022-12-07T02:18:01;4.60;99.90
10276;DHT22;5183;51.190;6.820;2022-12-07T02:20:30;4.50;99.90
10276;DHT22;5183;51.190;6.820;2022-12-07T02:23:27;4.50;99.90
10276;DHT22;5183;51.190;6.820;2022-12-07T02:29:11;4.50;99.90
10276;DHT22;5183;51.190;6.820;2022-12-07T02:31:44;4.60;99.90
10276;DHT22;5183;51.190;6.820;2022-12-07T02:34:18;4.60;99.90
10276;DHT22;5183;51.190;6.820;2022-12-07T02:36:52;4.60;99.90
10276;DHT22;5183;51.190;6.820;2022-12-07T02:39:24;4.60;99.90
10276;DHT22;5183;51.190;6.820;2022-12-07T02:41:56;4.50;99.90
10276;DHT22;5183;51.190;6.820;2022-12-07T02:44:27;4.50;99.90
10276;DHT22;5183;51.190;6.820;2022-12-07T02:46:58;4.50;99.90
10276;DHT22;5183;51.190;6.820;2022-12-07T02:49:27;4.50;99.90
10276;DHT22;5183;51.190;6.820;2022-12-07T02:51:54;4.50;99.90
10276;DHT22;5183;51.190;6.820;2022-12-07T02:54:21;4.50;99.90
10276;DHT22;5183;51.190;6.820;2022-12-07T02:56:50;4.50;99.90
10276;DHT22;5183;51.190;6.820;2022-12-07T02:59:28;4.50;99.90
10276;DHT22;5183;51.190;6.820;2022-12-07T03:02:08;4.50;99.90
10276;DHT22;5183;51.190;6.820;2022-12-07T03:04:44;4.50;99.90
10276;DHT22;5183;51.190;6.820;2022-12-07T03:07:21;4.50;99.90
10276;DHT22;5183;51.190;6.820;2022-12-07T03:09:57;4.50;99.90
10276;DHT22;5183;51.190;6.820;2022-12-07T03:12:29;4.50;99.90
10276;DHT22;5183;51.190;6.820;2022-12-07T03:15:02;4.50;99.90
10276;DHT22;5183;51.190;6.820;2022-12-07T03:17:33;4.50;99.90
10276;DHT22;5183;51.190;6.820;2022-12-07T03:20:04;4.50;99.90
10276;DHT22;5183;51.190;6.820;2022-12-07T03:22:35;4.50;99.90
10276;DHT22;5183;51.190;6.820;2022-12-07T03:25:05;4.50;99.90
10276;DHT22;5183;51.190;6.820;2022-12-07T03:27:35;4.40;99.90
10276;DHT22;5183;51.190;6.820;2022-12-07T03:30:07;4.50;99.90
10276;DHT22;5183;51.190;6.820;2022-12-07T03:32:37;4.50;99.90
10276;DHT22;5183;51.190;6.820;2022-12-07T03:35:09;4.40;99.90
10276;DHT22;5183;51.190;6.820;2022-12-07T03:37:40;4.40;99.90
10276;DHT22;5183;51.190;6.820;2022-12-07T03:40:14;4.40;99.90
10276;DHT22;5183;51.190;6.820;2022-12-07T03:42:43;4.40;99.90
10276;DHT22;5183;51.190;6.820;2022-12-07T03:45:11;4.40;99.90
10276;DHT22;5183;51.190;6.820;2022-12-07T03:47:45;4.40;99.90
10276;DHT22;5183;51.190;6.820;2022-12-07T03:50:18;4.40;99.90
10276;DHT22;5183;51.190;6.820;2022-12-07T03:52:53;4.30;99.90
10276;DHT22;5183;51.190;6.820;2022-12-07T03:55:26;4.40;99.90
10276;DHT22;5183;51.190;6.820;2022-12-07T03:58:00;4.40;99.90
10276;DHT22;5183;51.190;6.820;2022-12-07T04:00:30;4.40;99.90
10276;DHT22;5183;51.190;6.820;2022-12-07T04:02:58;4.40;99.90
10276;DHT22;5183;51.190;6.820;2022-12-07T04:05:25;4.30;99.90
10276;DHT22;5183;51.190;6.820;2022-12-07T04:07:52;4.30;99.90
10276;DHT22;5183;51.190;6.820;2022-12-07T04:10:19;4.20;99.90
10276;DHT22;5183;51.190;6.820;2022-12-07T04:12:46;4.20;99.90
10276;DHT22;5183;51.190;6.820;2022-12-07T04:15:13;4.20;99.90
10276;DHT22;5183;51.190;6.820;2022-12-07T04:17:41;4.20;99.90
10276;DHT22;5183;51.190;6.820;2022-12-07T04:20:09;4.10;99.90
10276;DHT22;5183;51.190;6.820;2022-12-07T04:22:36;4.10;99.90
10276;DHT22;5183;51.190;6.820;2022-12-07T04:25:03;4.10;99.90
10276;DHT22;5183;51.190;6.820;2022-12-07T04:27:30;4.10;99.90
10276;DHT22;5183;51.190;6.820;2022-12-07T04:29:57;4.20;99.90
10276;DHT22;5183;51.190;6.820;2022-12-07T04:32:24;4.20;99.90
10276;DHT22;5183;51.190;6.820;2022-12-07T04:34:52;4.10;99.90
10276;DHT22;5183;51.190;6.820;2022-12-07T04:37:19;4.20;99.90
10276;DHT22;5183;51.190;6.820;2022-12-07T04:39:46;4.10;99.90
10276;DHT22;5183;51.190;6.820;2022-12-07T04:42:12;4.20;99.90
10276;DHT22;5183;51.190;6.820;2022-12-07T04:44:39;4.20;99.90
10276;DHT22;5183;51.190;6.820;2022-12-07T04:47:06;4.20;99.90
10276;DHT22;5183;51.190;6.820;2022-12-07T04:49:33;4.20;99.90
10276;DHT22;5183;51.190;6.820;2022-12-07T04:52:02;4.20;99.90
10276;DHT22;5183;51.190;6.820;2022-12-07T04:54:29;4.20;99.90
10276;DHT22;5183;51.190;6.820;2022-12-07T04:56:56;4.10;99.90
10276;DHT22;5183;51.190;6.820;2022-12-07T04:59:23;4.10;99.90
10276;DHT22;5183;51.190;6.820;2022-12-07T05:01:49;4.20;99.90
10276;DHT22;5183;51.190;6.820;2022-12-07T05:04:16;4.20;99.90
10276;DHT22;5183;51.190;6.820;2022-12-07T05:06:44;4.10;99.90
10276;DHT22;5183;51.190;6.820;2022-12-07T05:09:12;4.20;99.90
10276;DHT22;5183;51.190;6.820;2022-12-07T05:11:39;4.20;99.90
10276;DHT22;5183;51.190;6.820;2022-12-07T05:14:08;4.20;99.90
10276;DHT22;5183;51.190;6.820;2022-12-07T05:16:35;4.10;99.90
10276;DHT22;5183;51.190;6.820;2022-12-07T05:19:03;4.10;99.90
10276;DHT22;5183;51.190;6.820;2022-12-07T05:21:30;4.10;99.90
10276;DHT22;5183;51.190;6.820;2022-12-07T05:23:57;4.10;99.90
10276;DHT22;5183;51.190;6.820;2022-12-07T05:26:26;4.10;99.90
10276;DHT22;5183;51.190;6.820;2022-12-07T05:28:53;4.10;99.90
10276;DHT22;5183;51.190;6.820;2022-12-07T05:31:20;4.10;99.90
10276;DHT22;5183;51.190;6.820;2022-12-07T05:33:48;4.10;99.90
10276;DHT22;5183;51.190;6.820;2022-12-07T05:36:14;4.10;99.90
10276;DHT22;5183;51.190;6.820;2022-12-07T05:38:41;4.10;99.90
10276;DHT22;5183;51.190;6.820;2022-12-07T05:41:12;4.10;99.90
10276;DHT22;5183;51.190;6.820;2022-12-07T05:43:55;4.10;99.90
10276;DHT22;5183;51.190;6.820;2022-12-07T05:46:22;4.10;99.90
10276;DHT22;5183;51.190;6.820;2022-12-07T05:48:48;4.20;99.90
10276;DHT22;5183;51.190;6.820;2022-12-07T05:51:15;4.20;99.90
10276;DHT22;5183;51.190;6.820;2022-12-07T05:53:42;4.20;99.90
10276;DHT22;5183;51.190;6.820;2022-12-07T05:56:09;4.20;99.90
10276;DHT22;5183;51.190;6.820;2022-12-07T05:58:36;4.20;99.90
10276;DHT22;5183;51.190;6.820;2022-12-07T06:01:22;4.20;99.90
10276;DHT22;5183;51.190;6.820;2022-12-07T06:03:48;4.20;99.90
10276;DHT22;5183;51.190;6.820;2022-12-07T06:06:15;4.20;99.90
10276;DHT22;5183;51.190;6.820;2022-12-07T06:08:42;4.20;99.90
10276;DHT22;5183;51.190;6.820;2022-12-07T06:11:09;4.20;99.90
10276;DHT22;5183;51.190;6.820;2022-12-07T06:13:53;4.20;99.90
10276;DHT22;5183;51.190;6.820;2022-12-07T06:16:21;4.20;99.90
10276;DHT22;5183;51.190;6.820;2022-12-07T06:18:48;4.20;99.90
10276;DHT22;5183;51.190;6.820;2022-12-07T06:21:15;4.30;99.90
10276;DHT22;5183;51.190;6.820;2022-12-07T06:23:42;4.30;99.90
10276;DHT22;5183;51.190;6.820;2022-12-07T06:26:08;4.30;99.90
10276;DHT22;5183;51.190;6.820;2022-12-07T06:28:35;4.20;99.90
10276;DHT22;5183;51.190;6.820;2022-12-07T06:31:03;4.20;99.90
10276;DHT22;5183;51.190;6.820;2022-12-07T06:33:31;4.10;99.90
10276;DHT22;5183;51.190;6.820;2022-12-07T06:35:58;4.10;99.90
10276;DHT22;5183;51.190;6.820;2022-12-07T06:38:24;4.10;99.90
10276;DHT22;5183;51.190;6.820;2022-12-07T06:40:51;4.10;99.90
10276;DHT22;5183;51.190;6.820;2022-12-07T06:43:18;4.00;99.90
10276;DHT22;5183;51.190;6.820;2022-12-07T06:45:45;4.10;99.90
10276;DHT22;5183;51.190;6.820;2022-12-07T06:48:12;4.00;99.90
10276;DHT22;5183;51.190;6.820;2022-12-07T06:50:40;4.00;99.90
10276;DHT22;5183;51.190;6.820;2022-12-07T06:53:08;4.10;99.90
10276;DHT22;5183;51.190;6.820;2022-12-07T06:55:35;4.10;99.90
10276;DHT22;5183;51.190;6.820;2022-12-07T06:58:02;4.10;99.90
10276;DHT22;5183;51.190;6.820;2022-12-07T07:00:29;4.10;99.90
10276;DHT22;5183;51.190;6.820;2022-12-07T07:02:56;4.10;99.90
10276;DHT22;5183;51.190;6.820;2022-12-07T07:05:23;4.10;99.90
10276;DHT22;5183;51.190;6.820;2022-12-07T07:07:51;4.10;99.90
10276;DHT22;5183;51.190;6.820;2022-12-07T07:10:18;4.10;99.90
10276;DHT22;5183;51.190;6.820;2022-12-07T07:12:45;4.10;99.90
10276;DHT22;5183;51.190;6.820;2022-12-07T07:15:12;4.10;99.90
10276;DHT22;5183;51.190;6.820;2022-12-07T07:17:39;4.10;99.90
10276;DHT22;5183;51.190;6.820;2022-12-07T07:20:06;4.00;99.90
10276;DHT22;5183;51.190;6.820;2022-12-07T07:22:33;4.10;99.90
10276;DHT22;5183;51.190;6.820;2022-12-07T07:25:02;4.00;99.90
10276;DHT22;5183;51.190;6.820;2022-12-07T07:27:29;4.00;99.90
10276;DHT22;5183;51.190;6.820;2022-12-07T07:29:56;4.00;99.90
10276;DHT22;5183;51.190;6.820;2022-12-07T07:32:22;4.00;99.90
10276;DHT22;5183;51.190;6.820;2022-12-07T07:34:49;3.90;99.90
10276;DHT22;5183;51.190;6.820;2022-12-07T07:37:16;3.90;99.90
10276;DHT22;5183;51.190;6.820;2022-12-07T07:39:43;3.90;99.90
10276;DHT22;5183;51.190;6.820;2022-12-07T07:42:11;3.90;99.90
10276;DHT22;5183;51.190;6.820;2022-12-07T07:44:38;3.90;99.90
10276;DHT22;5183;51.190;6.820;2022-12-07T07:47:05;3.90;99.90
10276;DHT22;5183;51.190;6.820;2022-12-07T07:49:31;4.00;99.90
10276;DHT22;5183;51.190;6.820;2022-12-07T07:51:58;4.00;99.90
10276;DHT22;5183;51.190;6.820;2022-12-07T07:54:25;4.00;99.90
10276;DHT22;5183;51.190;6.820;2022-12-07T07:56:52;3.90;99.90
10276;DHT22;5183;51.190;6.820;2022-12-07T07:59:20;4.00;99.90
10276;DHT22;5183;51.190;6.820;2022-12-07T08:01:47;4.00;99.90
10276;DHT22;5183;51.190;6.820;2022-12-07T08:04:14;4.00;99.90
10276;DHT22;5183;51.190;6.820;2022-12-07T08:06:41;4.00;99.90
10276;DHT22;5183;51.190;6.820;2022-12-07T08:09:08;3.90;99.90
10276;DHT22;5183;51.190;6.820;2022-12-07T08:11:36;3.90;99.90
10276;DHT22;5183;51.190;6.820;2022-12-07T08:14:03;3.90;99.90
10276;DHT22;5183;51.190;6.820;2022-12-07T08:16:31;3.90;99.90
10276;DHT22;5183;51.190;6.820;2022-12-07T08:18:58;3.80;99.90
10276;DHT22;5183;51.190;6.820;2022-12-07T08:21:25;3.80;99.90
10276;DHT22;5183;51.190;6.820;2022-12-07T08:23:52;3.80;99.90
10276;DHT22;5183;51.190;6.820;2022-12-07T08:26:19;3.90;99.90
10276;DHT22;5183;51.190;6.820;2022-12-07T08:28:45;3.90;99.90
10276;DHT22;5183;51.190;6.820;2022-12-07T08:31:14;4.00;99.90
10276;DHT22;5183;51.190;6.820;2022-12-07T08:33:45;4.10;99.90
10276;DHT22;5183;51.190;6.820;2022-12-07T08:36:12;4.10;99.90
10276;DHT22;5183;51.190;6.820;2022-12-07T08:38:41;4.10;99.90
10276;DHT22;5183;51.190;6.820;2022-12-07T08:41:08;4.20;99.90
10276;DHT22;5183;51.190;6.820;2022-12-07T08:43:35;4.20;99.90
10276;DHT22;5183;51.190;6.820;2022-12-07T08:46:08;4.30;99.90
10276;DHT22;5183;51.190;6.820;2022-12-07T08:48:40;4.30;99.90
10276;DHT22;5183;51.190;6.820;2022-12-07T08:51:09;4.30;99.90
10276;DHT22;5183;51.190;6.820;2022-12-07T08:53:37;4.30;99.90
10276;DHT22;5183;51.190;6.820;2022-12-07T08:56:06;4.40;99.90
10276;DHT22;5183;51.190;6.820;2022-12-07T08:58:36;4.40;99.90
10276;DHT22;5183;51.190;6.820;2022-12-07T09:01:04;4.40;99.90
10276;DHT22;5183;51.190;6.820;2022-12-07T09:03:31;4.40;99.90
10276;DHT22;5183;51.190;6.820;2022-12-07T09:05:58;4.30;99.90
10276;DHT22;5183;51.190;6.820;2022-12-07T09:08:30;4.30;99.90
10276;DHT22;5183;51.190;6.820;2022-12-07T09:10:57;4.30;99.90
10276;DHT22;5183;51.190;6.820;2022-12-07T09:13:24;4.30;99.90
10276;DHT22;5183;51.190;6.820;2022-12-07T09:15:51;4.30;99.90
10276;DHT22;5183;51.190;6.820;2022-12-07T09:18:18;4.30;99.90
10276;DHT22;5183;51.190;6.820;2022-12-07T09:20:45;4.40;99.90
10276;DHT22;5183;51.190;6.820;2022-12-07T09:23:11;4.40;99.90
10276;DHT22;5183;51.190;6.820;2022-12-07T09:25:40;4.50;99.90
10276;DHT22;5183;51.190;6.820;2022-12-07T09:28:06;4.60;99.90
10276;DHT22;5183;51.190;6.820;2022-12-07T09:30:34;4.60;99.90
10276;DHT22;5183;51.190;6.820;2022-12-07T09:33:01;4.70;99.90
10276;DHT22;5183;51.190;6.820;2022-12-07T09:35:28;4.70;99.90
10276;DHT22;5183;51.190;6.820;2022-12-07T09:37:55;4.80;99.90
10276;DHT22;5183;51.190;6.820;2022-12-07T09:40:23;4.90;99.90
10276;DHT22;5183;51.190;6.820;2022-12-07T09:42:53;4.90;99.90
10276;DHT22;5183;51.190;6.820;2022-12-07T09:45:23;4.90;99.90
10276;DHT22;5183;51.190;6.820;2022-12-07T09:47:50;4.90;99.90
10276;DHT22;5183;51.190;6.820;2022-12-07T09:50:21;4.90;99.90
10276;DHT22;5183;51.190;6.820;2022-12-07T09:52:49;5.00;99.90
10276;DHT22;5183;51.190;6.820;2022-12-07T09:55:21;5.00;99.90
10276;DHT22;5183;51.190;6.820;2022-12-07T09:57:52;5.10;99.90
10276;DHT22;5183;51.190;6.820;2022-12-07T10:00:21;5.10;99.90
10276;DHT22;5183;51.190;6.820;2022-12-07T10:02:51;5.10;99.90
10276;DHT22;5183;51.190;6.820;2022-12-07T10:05:22;5.20;99.90
10276;DHT22;5183;51.190;6.820;2022-12-07T10:07:50;5.20;99.90
10276;DHT22;5183;51.190;6.820;2022-12-07T10:10:21;5.20;99.90
10276;DHT22;5183;51.190;6.820;2022-12-07T10:12:59;5.30;99.90
10276;DHT22;5183;51.190;6.820;2022-12-07T10:15:45;5.30;99.90
10276;DHT22;5183;51.190;6.820;2022-12-07T10:18:27;5.40;99.90
10276;DHT22;5183;51.190;6.820;2022-12-07T10:21:08;5.40;99.90
10276;DHT22;5183;51.190;6.820;2022-12-07T10:23:37;5.40;99.90
10276;DHT22;5183;51.190;6.820;2022-12-07T10:26:31;5.50;99.90
10276;DHT22;5183;51.190;6.820;2022-12-07T10:29:14;5.50;99.90
10276;DHT22;5183;51.190;6.820;2022-12-07T10:31:41;5.60;99.90
10276;DHT22;5183;51.190;6.820;2022-12-07T10:34:21;5.70;99.90
10276;DHT22;5183;51.190;6.820;2022-12-07T10:36:50;5.60;99.90
10276;DHT22;5183;51.190;6.820;2022-12-07T10:39:18;5.60;99.90
10276;DHT22;5183;51.190;6.820;2022-12-07T10:41:56;5.70;99.90
10276;DHT22;5183;51.190;6.820;2022-12-07T10:44:26;5.70;99.90
10276;DHT22;5183;51.190;6.820;2022-12-07T10:50:37;5.70;99.90
10276;DHT22;5183;51.190;6.820;2022-12-07T10:53:23;5.70;99.90
10276;DHT22;5183;51.190;6.820;2022-12-07T10:56:11;5.70;99.90
10276;DHT22;5183;51.190;6.820;2022-12-07T10:58:53;5.70;99.90
10276;DHT22;5183;51.190;6.820;2022-12-07T11:01:28;5.80;99.90
10276;DHT22;5183;51.190;6.820;2022-12-07T11:04:16;5.70;99.90
10276;DHT22;5183;51.190;6.820;2022-12-07T11:06:47;5.80;99.90
10276;DHT22;5183;51.190;6.820;2022-12-07T11:09:43;5.90;99.90
10276;DHT22;5183;51.190;6.820;2022-12-07T11:12:20;5.90;99.90
10276;DHT22;5183;51.190;6.820;2022-12-07T11:14:53;5.90;99.90
10276;DHT22;5183;51.190;6.820;2022-12-07T11:17:28;6.00;99.90
10276;DHT22;5183;51.190;6.820;2022-12-07T11:20:04;5.90;99.90
10276;DHT22;5183;51.190;6.820;2022-12-07T11:22:44;6.00;99.90
10276;DHT22;5183;51.190;6.820;2022-12-07T11:25:19;6.00;99.90
10276;DHT22;5183;51.190;6.820;2022-12-07T11:27:56;6.00;99.90
10276;DHT22;5183;51.190;6.820;2022-12-07T11:30:32;5.90;99.90
10276;DHT22;5183;51.190;6.820;2022-12-07T11:33:13;5.90;99.90
10276;DHT22;5183;51.190;6.820;2022-12-07T11:35:56;5.80;99.90
10276;DHT22;5183;51.190;6.820;2022-12-07T11:38:37;5.80;99.90
10276;DHT22;5183;51.190;6.820;2022-12-07T11:41:06;5.90;99.90
10276;DHT22;5183;51.190;6.820;2022-12-07T11:44:00;5.90;99.90
10276;DHT22;5183;51.190;6.820;2022-12-07T11:46:44;6.10;99.90
10276;DHT22;5183;51.190;6.820;2022-12-07T11:49:19;6.20;99.90
10276;DHT22;5183;51.190;6.820;2022-12-07T11:51:50;6.30;99.90
10276;DHT22;5183;51.190;6.820;2022-12-07T11:54:21;6.40;99.90
10276;DHT22;5183;51.190;6.820;2022-12-07T11:56:50;6.60;99.90
10276;DHT22;5183;51.190;6.820;2022-12-07T11:59:22;6.60;99.90
10276;DHT22;5183;51.190;6.820;2022-12-07T12:01:53;6.80;99.90
10276;DHT22;5183;51.190;6.820;2022-12-07T12:04:29;6.80;94.80
10276;DHT22;5183;51.190;6.820;2022-12-07T12:06:57;6.90;92.80
10276;DHT22;5183;51.190;6.820;2022-12-07T12:09:29;6.90;93.40
10276;DHT22;5183;51.190;6.820;2022-12-07T12:12:12;6.90;98.30
10276;DHT22;5183;51.190;6.820;2022-12-07T12:14:50;7.00;97.80
10276;DHT22;5183;51.190;6.820;2022-12-07T12:17:33;7.00;93.70
10276;DHT22;5183;51.190;6.820;2022-12-07T12:20:13;7.10;87.40
10276;DHT22;5183;51.190;6.820;2022-12-07T12:22:45;7.20;96.50
10276;DHT22;5183;51.190;6.820;2022-12-07T12:25:20;7.40;56.70
10276;DHT22;5183;51.190;6.820;2022-12-07T12:27:49;7.60;21.80
10276;DHT22;5183;51.190;6.820;2022-12-07T12:30:31;7.60;1.00
10276;DHT22;5183;51.190;6.820;2022-12-07T12:33:06;7.60;1.00
10276;DHT22;5183;51.190;6.820;2022-12-07T12:35:36;7.60;1.00
10276;DHT22;5183;51.190;6.820;2022-12-07T12:38:27;7.80;1.00
10276;DHT22;5183;51.190;6.820;2022-12-07T12:40:55;7.90;1.00
10276;DHT22;5183;51.190;6.820;2022-12-07T12:43:50;7.90;1.00
10276;DHT22;5183;51.190;6.820;2022-12-07T12:46:48;8.00;1.00
10276;DHT22;5183;51.190;6.820;2022-12-07T12:49:43;8.00;1.00
10276;DHT22;5183;51.190;6.820;2022-12-07T12:55:41;7.80;1.00
10276;DHT22;5183;51.190;6.820;2022-12-07T12:58:33;7.60;1.00
10276;DHT22;5183;51.190;6.820;2022-12-07T13:01:33;7.50;1.00
10276;DHT22;5183;51.190;6.820;2022-12-07T13:04:18;7.40;1.00
10276;DHT22;5183;51.190;6.820;2022-12-07T13:06:48;7.30;1.00
10276;DHT22;5183;51.190;6.820;2022-12-07T13:09:22;7.20;1.00
10276;DHT22;5183;51.190;6.820;2022-12-07T13:12:00;7.10;1.00
10276;DHT22;5183;51.190;6.820;2022-12-07T13:14:53;7.00;1.00
10276;DHT22;5183;51.190;6.820;2022-12-07T13:17:59;7.00;1.00
10276;DHT22;5183;51.190;6.820;2022-12-07T13:20:48;6.90;1.00
10276;DHT22;5183;51.190;6.820;2022-12-07T13:23:19;6.90;1.00
10276;DHT22;5183;51.190;6.820;2022-12-07T13:26:03;6.90;1.00
10276;DHT22;5183;51.190;6.820;2022-12-07T13:28:36;6.80;1.00
10276;DHT22;5183;51.190;6.820;2022-12-07T13:31:33;6.80;1.00
10276;DHT22;5183;51.190;6.820;2022-12-07T13:34:01;6.80;1.00
10276;DHT22;5183;51.190;6.820;2022-12-07T13:36:30;6.70;1.00
10276;DHT22;5183;51.190;6.820;2022-12-07T13:39:15;6.60;1.00
10276;DHT22;5183;51.190;6.820;2022-12-07T13:41:43;6.60;1.00
10276;DHT22;5183;51.190;6.820;2022-12-07T13:44:14;6.60;1.00
10276;DHT22;5183;51.190;6.820;2022-12-07T13:46:46;6.60;1.00
10276;DHT22;5183;51.190;6.820;2022-12-07T13:49:20;6.60;1.00
10276;DHT22;5183;51.190;6.820;2022-12-07T13:51:48;6.60;1.00
10276;DHT22;5183;51.190;6.820;2022-12-07T13:54:15;6.60;1.00
10276;DHT22;5183;51.190;6.820;2022-12-07T13:56:42;6.60;1.00
10276;DHT22;5183;51.190;6.820;2022-12-07T13:59:19;6.60;1.00
10276;DHT22;5183;51.190;6.820;2022-12-07T14:01:47;6.60;1.00
10276;DHT22;5183;51.190;6.820;2022-12-07T14:04:33;6.60;1.00
10276;DHT22;5183;51.190;6.820;2022-12-07T14:07:01;6.70;1.00
10276;DHT22;5183;51.190;6.820;2022-12-07T14:09:54;6.70;1.00
10276;DHT22;5183;51.190;6.820;2022-12-07T14:12:21;6.60;1.00
10276;DHT22;5183;51.190;6.820;2022-12-07T14:14:49;6.60;1.00
10276;DHT22;5183;51.190;6.820;2022-12-07T14:17:19;6.60;1.00
10276;DHT22;5183;51.190;6.820;2022-12-07T14:19:56;6.60;1.00
10276;DHT22;5183;51.190;6.820;2022-12-07T14:22:29;6.60;1.00
10276;DHT22;5183;51.190;6.820;2022-12-07T14:25:17;6.70;1.00
10276;DHT22;5183;51.190;6.820;2022-12-07T14:27:49;6.60;1.00
10276;DHT22;5183;51.190;6.820;2022-12-07T14:30:20;6.60;1.00
10276;DHT22;5183;51.190;6.820;2022-12-07T14:32:48;6.60;1.00
10276;DHT22;5183;51.190;6.820;2022-12-07T14:35:18;6.60;1.00
10276;DHT22;5183;51.190;6.820;2022-12-07T14:37:46;6.50;1.00
10276;DHT22;5183;51.190;6.820;2022-12-07T14:40:15;6.50;1.00
10276;DHT22;5183;51.190;6.820;2022-12-07T14:42:43;6.40;1.00
10276;DHT22;5183;51.190;6.820;2022-12-07T14:45:14;6.40;1.00
10276;DHT22;5183;51.190;6.820;2022-12-07T14:47:44;6.30;1.00
10276;DHT22;5183;51.190;6.820;2022-12-07T14:50:13;6.30;1.00
10276;DHT22;5183;51.190;6.820;2022-12-07T14:52:41;6.20;1.00
10276;DHT22;5183;51.190;6.820;2022-12-07T14:55:14;6.20;1.00
10276;DHT22;5183;51.190;6.820;2022-12-07T14:57:43;6.10;1.00
10276;DHT22;5183;51.190;6.820;2022-12-07T15:00:14;6.00;1.00
10276;DHT22;5183;51.190;6.820;2022-12-07T15:02:44;6.00;1.00
10276;DHT22;5183;51.190;6.820;2022-12-07T15:05:11;5.90;1.00
10276;DHT22;5183;51.190;6.820;2022-12-07T15:07:38;5.90;1.00
10276;DHT22;5183;51.190;6.820;2022-12-07T15:10:14;5.90;1.00
10276;DHT22;5183;51.190;6.820;2022-12-07T15:12:43;5.90;1.00
10276;DHT22;5183;51.190;6.820;2022-12-07T15:15:10;5.90;1.00
10276;DHT22;5183;51.190;6.820;2022-12-07T15:17:37;5.80;1.00
10276;DHT22;5183;51.190;6.820;2022-12-07T15:20:08;5.80;1.00
10276;DHT22;5183;51.190;6.820;2022-12-07T15:22:37;5.80;1.00
10276;DHT22;5183;51.190;6.820;2022-12-07T15:25:04;5.80;1.00
10276;DHT22;5183;51.190;6.820;2022-12-07T15:27:31;5.80;1.00
10276;DHT22;5183;51.190;6.820;2022-12-07T15:29:58;5.80;1.00
10276;DHT22;5183;51.190;6.820;2022-12-07T15:32:25;5.80;1.00
10276;DHT22;5183;51.190;6.820;2022-12-07T15:34:52;5.80;1.00
10276;DHT22;5183;51.190;6.820;2022-12-07T15:37:20;5.80;3.30
10276;DHT22;5183;51.190;6.820;2022-12-07T15:39:47;5.80;1.00
10276;DHT22;5183;51.190;6.820;2022-12-07T15:42:14;5.80;7.40
10276;DHT22;5183;51.190;6.820;2022-12-07T15:44:40;5.70;19.50
10276;DHT22;5183;51.190;6.820;2022-12-07T15:47:25;5.70;31.90
10276;DHT22;5183;51.190;6.820;2022-12-07T15:49:52;5.60;36.90
10276;DHT22;5183;51.190;6.820;2022-12-07T15:52:20;5.60;46.50
10276;DHT22;5183;51.190;6.820;2022-12-07T15:54:47;5.50;51.50
10276;DHT22;5183;51.190;6.820;2022-12-07T15:57:13;5.40;47.70
10276;DHT22;5183;51.190;6.820;2022-12-07T15:59:40;5.40;52.90
10276;DHT22;5183;51.190;6.820;2022-12-07T16:02:08;5.30;56.00
10276;DHT22;5183;51.190;6.820;2022-12-07T16:04:35;5.30;56.30
10276;DHT22;5183;51.190;6.820;2022-12-07T16:07:02;5.30;66.50
10276;DHT22;5183;51.190;6.820;2022-12-07T16:09:31;5.20;70.50
10276;DHT22;5183;51.190;6.820;2022-12-07T16:11:58;5.20;70.20
10276;DHT22;5183;51.190;6.820;2022-12-07T16:14:25;5.20;69.10
10276;DHT22;5183;51.190;6.820;2022-12-07T16:16:52;5.10;76.50
10276;DHT22;5183;51.190;6.820;2022-12-07T16:19:19;5.10;84.60
10276;DHT22;5183;51.190;6.820;2022-12-07T16:21:45;5.10;83.60
10276;DHT22;5183;51.190;6.820;2022-12-07T16:24:12;5.10;83.70
10276;DHT22;5183;51.190;6.820;2022-12-07T16:26:42;5.10;90.50
10276;DHT22;5183;51.190;6.820;2022-12-07T16:29:11;5.10;93.90
10276;DHT22;5183;51.190;6.820;2022-12-07T16:31:38;5.10;95.30
10276;DHT22;5183;51.190;6.820;2022-12-07T16:34:06;5.10;98.30
10276;DHT22;5183;51.190;6.820;2022-12-07T16:36:33;5.00;99.90
10276;DHT22;5183;51.190;6.820;2022-12-07T16:39:00;5.10;99.40
10276;DHT22;5183;51.190;6.820;2022-12-07T16:41:27;5.10;99.90